sensor_id;sensor_type;location;lat;lon;timestamp;pressure;altitude;pressure_sealevel;temperature;humidity
24160;BME280;62385;41.594;23.808;2023-02-17T00:02:24;96543.91;;;-0.08;72.03
24160;BME280;62385;41.594;23.808;2023-02-17T00:04:51;96542.19;;;-0.25;73.11
24160;BME280;62385;41.594;23.808;2023-02-17T00:07:18;96552.13;;;0.02;72.27
24160;BME280;62385;41.594;23.808;2023-02-17T00:09:44;96551.44;;;-0.02;71.59
24160;BME280;62385;41.594;23.808;2023-02-17T00:12:09;96548.63;;;-0.15;71.86
24160;BME280;62385;41.594;23.808;2023-02-17T00:14:39;96551.03;;;0.21;70.73
24160;BME280;62385;41.594;23.808;2023-02-17T00:17:05;96549.50;;;0.02;71.29
24160;BME280;62385;41.594;23.808;2023-02-17T00:19:31;96549.94;;;0.10;70.29
24160;BME280;62385;41.594;23.808;2023-02-17T00:22:01;96550.63;;;-0.20;71.14
24160;BME280;62385;41.594;23.808;2023-02-17T00:24:30;96545.84;;;-0.62;72.31
24160;BME280;62385;41.594;23.808;2023-02-17T00:26:56;96542.28;;;-0.26;71.84
24160;BME280;62385;41.594;23.808;2023-02-17T00:29:21;96546.16;;;-0.51;71.67
24160;BME280;62385;41.594;23.808;2023-02-17T00:31:48;96545.19;;;-0.32;71.49
24160;BME280;62385;41.594;23.808;2023-02-17T00:34:15;96546.50;;;-0.41;71.87
24160;BME280;62385;41.594;23.808;2023-02-17T00:36:41;96542.09;;;-0.56;71.93
24160;BME280;62385;41.594;23.808;2023-02-17T00:39:08;96543.75;;;-0.38;70.95
24160;BME280;62385;41.594;23.808;2023-02-17T00:41:33;96547.06;;;-0.34;71.16
24160;BME280;62385;41.594;23.808;2023-02-17T00:43:59;96544.47;;;-0.52;71.53
24160;BME280;62385;41.594;23.808;2023-02-17T00:46:26;96541.38;;;-0.42;71.19
24160;BME280;62385;41.594;23.808;2023-02-17T00:48:52;96541.41;;;-0.77;71.48
24160;BME280;62385;41.594;23.808;2023-02-17T00:51:18;96548.28;;;-0.93;71.76
24160;BME280;62385;41.594;23.808;2023-02-17T00:53:44;96546.38;;;-0.89;71.27
24160;BME280;62385;41.594;23.808;2023-02-17T00:56:10;96537.47;;;-1.03;72.25
24160;BME280;62385;41.594;23.808;2023-02-17T00:58:37;96525.06;;;-0.80;72.20
24160;BME280;62385;41.594;23.808;2023-02-17T01:01:03;96530.22;;;-0.79;72.23
24160;BME280;62385;41.594;23.808;2023-02-17T01:03:29;96530.72;;;-0.89;72.92
24160;BME280;62385;41.594;23.808;2023-02-17T01:05:56;96529.50;;;-0.82;72.16
24160;BME280;62385;41.594;23.808;2023-02-17T01:08:22;96528.34;;;-1.11;72.49
24160;BME280;62385;41.594;23.808;2023-02-17T01:10:49;96524.88;;;-1.12;72.98
24160;BME280;62385;41.594;23.808;2023-02-17T01:13:16;96516.97;;;-1.27;73.07
24160;BME280;62385;41.594;23.808;2023-02-17T01:15:48;96512.75;;;-1.30;72.95
24160;BME280;62385;41.594;23.808;2023-02-17T01:18:15;96513.00;;;-1.34;73.45
24160;BME280;62385;41.594;23.808;2023-02-17T01:20:41;96511.25;;;-1.17;72.64
24160;BME280;62385;41.594;23.808;2023-02-17T01:23:08;96515.72;;;-1.02;72.57
24160;BME280;62385;41.594;23.808;2023-02-17T01:25:39;96508.69;;;-1.00;73.03
24160;BME280;62385;41.594;23.808;2023-02-17T01:28:06;96514.19;;;-1.06;72.62
24160;BME280;62385;41.594;23.808;2023-02-17T01:30:32;96517.22;;;-1.15;72.72
24160;BME280;62385;41.594;23.808;2023-02-17T01:32:58;96510.47;;;-1.19;72.24
24160;BME280;62385;41.594;23.808;2023-02-17T01:35:23;96513.56;;;-1.11;72.03
24160;BME280;62385;41.594;23.808;2023-02-17T01:37:49;96507.13;;;-1.21;71.53
24160;BME280;62385;41.594;23.808;2023-02-17T01:40:15;96507.13;;;-1.04;72.12
24160;BME280;62385;41.594;23.808;2023-02-17T01:42:40;96502.66;;;-1.19;72.34
24160;BME280;62385;41.594;23.808;2023-02-17T01:47:52;96508.44;;;-1.48;73.87
24160;BME280;62385;41.594;23.808;2023-02-17T01:50:23;96498.91;;;-1.13;73.64
24160;BME280;62385;41.594;23.808;2023-02-17T01:52:51;96491.41;;;-1.02;73.49
24160;BME280;62385;41.594;23.808;2023-02-17T01:55:19;96481.28;;;-0.91;72.89
24160;BME280;62385;41.594;23.808;2023-02-17T01:57:46;96485.97;;;-0.80;72.21
24160;BME280;62385;41.594;23.808;2023-02-17T02:00:14;96481.66;;;-0.81;71.54
24160;BME280;62385;41.594;23.808;2023-02-17T02:02:45;96487.03;;;-1.02;71.58
24160;BME280;62385;41.594;23.808;2023-02-17T02:05:13;96483.53;;;-0.83;71.54
24160;BME280;62385;41.594;23.808;2023-02-17T02:07:40;96481.06;;;-1.21;71.65
24160;BME280;62385;41.594;23.808;2023-02-17T02:10:09;96476.59;;;-1.36;71.84
24160;BME280;62385;41.594;23.808;2023-02-17T02:12:37;96480.94;;;-1.54;73.04
24160;BME280;62385;41.594;23.808;2023-02-17T02:15:08;96480.53;;;-1.63;73.29
24160;BME280;62385;41.594;23.808;2023-02-17T02:23:26;96470.31;;;-1.15;72.49
24160;BME280;62385;41.594;23.808;2023-02-17T02:28:58;96464.91;;;-0.93;71.60
24160;BME280;62385;41.594;23.808;2023-02-17T02:34:37;96463.13;;;-0.93;70.48
24160;BME280;62385;41.594;23.808;2023-02-17T02:37:14;96467.88;;;-1.01;70.78
24160;BME280;62385;41.594;23.808;2023-02-17T02:39:46;96462.44;;;-0.96;70.86
24160;BME280;62385;41.594;23.808;2023-02-17T02:42:16;96478.59;;;-0.89;70.81
24160;BME280;62385;41.594;23.808;2023-02-17T02:44:43;96478.78;;;-1.10;70.98
24160;BME280;62385;41.594;23.808;2023-02-17T02:50:03;96482.72;;;-1.20;70.02
24160;BME280;62385;41.594;23.808;2023-02-17T02:55:29;96481.53;;;-1.66;71.41
24160;BME280;62385;41.594;23.808;2023-02-17T02:58:13;96485.41;;;-1.38;71.35
24160;BME280;62385;41.594;23.808;2023-02-17T03:06:38;96488.47;;;-1.30;72.09
24160;BME280;62385;41.594;23.808;2023-02-17T03:09:13;96483.41;;;-1.69;72.44
24160;BME280;62385;41.594;23.808;2023-02-17T03:11:45;96486.44;;;-1.60;71.96
24160;BME280;62385;41.594;23.808;2023-02-17T03:14:14;96480.31;;;-1.59;72.07
24160;BME280;62385;41.594;23.808;2023-02-17T03:16:43;96475.91;;;-1.75;73.17
24160;BME280;62385;41.594;23.808;2023-02-17T03:19:09;96477.53;;;-2.10;74.10
24160;BME280;62385;41.594;23.808;2023-02-17T03:21:44;96477.72;;;-1.59;72.32
24160;BME280;62385;41.594;23.808;2023-02-17T03:24:12;96472.31;;;-1.73;72.38
24160;BME280;62385;41.594;23.808;2023-02-17T03:26:37;96476.19;;;-1.81;72.30
24160;BME280;62385;41.594;23.808;2023-02-17T03:29:03;96480.00;;;-1.53;71.32
24160;BME280;62385;41.594;23.808;2023-02-17T03:31:28;96465.44;;;-1.57;71.14
24160;BME280;62385;41.594;23.808;2023-02-17T03:33:54;96470.97;;;-1.81;72.91
24160;BME280;62385;41.594;23.808;2023-02-17T03:36:20;96471.59;;;-1.58;72.30
24160;BME280;62385;41.594;23.808;2023-02-17T03:38:45;96477.78;;;-1.60;72.78
24160;BME280;62385;41.594;23.808;2023-02-17T03:41:11;96481.81;;;-1.72;72.60
24160;BME280;62385;41.594;23.808;2023-02-17T03:43:37;96478.19;;;-1.87;74.37
24160;BME280;62385;41.594;23.808;2023-02-17T03:46:02;96473.59;;;-2.00;74.91
24160;BME280;62385;41.594;23.808;2023-02-17T03:48:28;96477.94;;;-1.82;73.44
24160;BME280;62385;41.594;23.808;2023-02-17T03:50:54;96467.88;;;-1.90;73.78
24160;BME280;62385;41.594;23.808;2023-02-17T03:53:19;96468.38;;;-1.81;73.60
24160;BME280;62385;41.594;23.808;2023-02-17T03:55:45;96469.19;;;-1.26;72.15
24160;BME280;62385;41.594;23.808;2023-02-17T03:58:11;96463.69;;;-1.20;71.79
24160;BME280;62385;41.594;23.808;2023-02-17T04:00:37;96466.66;;;-1.11;71.13
24160;BME280;62385;41.594;23.808;2023-02-17T04:03:04;96471.16;;;-1.31;72.14
24160;BME280;62385;41.594;23.808;2023-02-17T04:05:29;96468.34;;;-0.93;70.99
24160;BME280;62385;41.594;23.808;2023-02-17T04:07:56;96469.88;;;-1.06;70.71
24160;BME280;62385;41.594;23.808;2023-02-17T04:10:21;96463.06;;;-1.08;70.65
24160;BME280;62385;41.594;23.808;2023-02-17T04:12:48;96472.78;;;-1.29;71.33
24160;BME280;62385;41.594;23.808;2023-02-17T04:15:13;96471.59;;;-1.41;70.96
24160;BME280;62385;41.594;23.808;2023-02-17T04:17:40;96462.22;;;-1.26;70.88
24160;BME280;62385;41.594;23.808;2023-02-17T04:20:06;96469.69;;;-1.20;70.32
24160;BME280;62385;41.594;23.808;2023-02-17T04:22:32;96465.56;;;-1.24;70.46
24160;BME280;62385;41.594;23.808;2023-02-17T04:24:58;96471.09;;;-1.30;71.11
24160;BME280;62385;41.594;23.808;2023-02-17T04:27:23;96472.66;;;-1.09;71.25
24160;BME280;62385;41.594;23.808;2023-02-17T04:29:50;96480.47;;;-1.09;70.76
24160;BME280;62385;41.594;23.808;2023-02-17T04:32:16;96471.72;;;-1.25;71.25
24160;BME280;62385;41.594;23.808;2023-02-17T04:34:41;96477.44;;;-1.35;71.64
24160;BME280;62385;41.594;23.808;2023-02-17T04:37:07;96479.88;;;-1.50;71.00
24160;BME280;62385;41.594;23.808;2023-02-17T04:39:32;96477.38;;;-1.70;70.86
24160;BME280;62385;41.594;23.808;2023-02-17T04:41:59;96474.69;;;-1.68;70.72
24160;BME280;62385;41.594;23.808;2023-02-17T04:44:24;96470.69;;;-1.94;71.19
24160;BME280;62385;41.594;23.808;2023-02-17T04:46:50;96477.41;;;-1.89;70.93
24160;BME280;62385;41.594;23.808;2023-02-17T04:49:15;96475.44;;;-1.83;71.02
24160;BME280;62385;41.594;23.808;2023-02-17T04:51:41;96480.31;;;-1.77;70.64
24160;BME280;62385;41.594;23.808;2023-02-17T04:54:09;96470.44;;;-1.88;70.99
24160;BME280;62385;41.594;23.808;2023-02-17T04:56:54;96475.31;;;-1.99;71.54
24160;BME280;62385;41.594;23.808;2023-02-17T04:59:20;96481.19;;;-1.41;70.71
24160;BME280;62385;41.594;23.808;2023-02-17T05:01:46;96473.75;;;-1.31;70.29
24160;BME280;62385;41.594;23.808;2023-02-17T05:04:11;96478.69;;;-1.61;71.08
24160;BME280;62385;41.594;23.808;2023-02-17T05:06:37;96475.13;;;-1.77;71.86
24160;BME280;62385;41.594;23.808;2023-02-17T05:09:02;96476.19;;;-1.81;71.74
24160;BME280;62385;41.594;23.808;2023-02-17T05:11:28;96478.19;;;-1.87;71.78
24160;BME280;62385;41.594;23.808;2023-02-17T05:13:56;96476.19;;;-1.81;71.72
24160;BME280;62385;41.594;23.808;2023-02-17T05:16:21;96470.78;;;-2.14;71.96
24160;BME280;62385;41.594;23.808;2023-02-17T05:18:47;96481.31;;;-1.99;72.13
24160;BME280;62385;41.594;23.808;2023-02-17T05:21:13;96478.25;;;-1.88;73.23
24160;BME280;62385;41.594;23.808;2023-02-17T05:23:38;96470.38;;;-1.87;72.80
24160;BME280;62385;41.594;23.808;2023-02-17T05:26:08;96475.63;;;-2.07;73.32
24160;BME280;62385;41.594;23.808;2023-02-17T05:28:35;96472.19;;;-1.70;71.44
24160;BME280;62385;41.594;23.808;2023-02-17T05:31:02;96476.22;;;-1.64;71.14
24160;BME280;62385;41.594;23.808;2023-02-17T05:33:27;96478.28;;;-1.35;70.07
24160;BME280;62385;41.594;23.808;2023-02-17T05:35:53;96472.19;;;-1.17;69.21
24160;BME280;62385;41.594;23.808;2023-02-17T05:38:19;96477.16;;;-1.29;70.24
24160;BME280;62385;41.594;23.808;2023-02-17T05:40:44;96468.88;;;-1.37;70.92
24160;BME280;62385;41.594;23.808;2023-02-17T05:43:10;96483.81;;;-1.60;71.12
24160;BME280;62385;41.594;23.808;2023-02-17T05:45:36;96483.41;;;-1.69;71.98
24160;BME280;62385;41.594;23.808;2023-02-17T05:48:01;96493.00;;;-1.34;71.11
24160;BME280;62385;41.594;23.808;2023-02-17T05:50:27;96480.34;;;-0.73;70.59
24160;BME280;62385;41.594;23.808;2023-02-17T05:53:01;96487.59;;;-0.45;68.84
24160;BME280;62385;41.594;23.808;2023-02-17T05:55:26;96483.69;;;-0.54;70.06
24160;BME280;62385;41.594;23.808;2023-02-17T05:57:52;96486.88;;;-0.64;70.60
24160;BME280;62385;41.594;23.808;2023-02-17T06:00:17;96482.34;;;-0.28;69.66
24160;BME280;62385;41.594;23.808;2023-02-17T06:02:43;96491.66;;;-0.07;69.12
24160;BME280;62385;41.594;23.808;2023-02-17T06:05:08;96489.22;;;-0.10;69.38
24160;BME280;62385;41.594;23.808;2023-02-17T06:07:34;96489.03;;;0.09;68.93
24160;BME280;62385;41.594;23.808;2023-02-17T06:10:00;96493.28;;;0.12;68.85
24160;BME280;62385;41.594;23.808;2023-02-17T06:12:25;96489.22;;;0.06;69.00
24160;BME280;62385;41.594;23.808;2023-02-17T06:14:51;96482.91;;;0.26;68.43
24160;BME280;62385;41.594;23.808;2023-02-17T06:17:17;96487.28;;;0.25;68.64
24160;BME280;62385;41.594;23.808;2023-02-17T06:19:43;96485.88;;;0.20;69.13
24160;BME280;62385;41.594;23.808;2023-02-17T06:22:09;96473.22;;;0.43;68.56
24160;BME280;62385;41.594;23.808;2023-02-17T06:24:35;96487.47;;;0.38;68.99
24160;BME280;62385;41.594;23.808;2023-02-17T06:27:03;96482.47;;;0.65;68.76
24160;BME280;62385;41.594;23.808;2023-02-17T06:29:30;96483.69;;;0.89;68.46
24160;BME280;62385;41.594;23.808;2023-02-17T06:31:55;96470.56;;;0.75;68.42
24160;BME280;62385;41.594;23.808;2023-02-17T06:34:21;96476.50;;;0.92;68.89
24160;BME280;62385;41.594;23.808;2023-02-17T06:36:47;96461.53;;;0.35;70.03
24160;BME280;62385;41.594;23.808;2023-02-17T06:39:14;96472.53;;;1.01;68.92
24160;BME280;62385;41.594;23.808;2023-02-17T06:41:39;96458.94;;;0.80;69.48
24160;BME280;62385;41.594;23.808;2023-02-17T06:44:08;96464.94;;;0.97;69.22
24160;BME280;62385;41.594;23.808;2023-02-17T06:46:33;96470.56;;;1.05;69.36
24160;BME280;62385;41.594;23.808;2023-02-17T06:48:59;96455.28;;;1.13;68.68
24160;BME280;62385;41.594;23.808;2023-02-17T06:51:26;96462.66;;;1.06;69.44
24160;BME280;62385;41.594;23.808;2023-02-17T06:53:52;96472.91;;;0.95;69.72
24160;BME280;62385;41.594;23.808;2023-02-17T06:56:18;96483.47;;;0.78;70.63
24160;BME280;62385;41.594;23.808;2023-02-17T06:58:44;96476.38;;;1.10;68.91
24160;BME280;62385;41.594;23.808;2023-02-17T07:01:19;96466.38;;;1.02;69.02
24160;BME280;62385;41.594;23.808;2023-02-17T07:03:46;96472.47;;;1.17;68.87
24160;BME280;62385;41.594;23.808;2023-02-17T07:06:15;96479.91;;;0.95;69.48
24160;BME280;62385;41.594;23.808;2023-02-17T07:08:41;96485.44;;;0.74;70.35
24160;BME280;62385;41.594;23.808;2023-02-17T07:11:09;96479.66;;;0.83;70.32
24160;BME280;62385;41.594;23.808;2023-02-17T07:13:35;96490.84;;;1.01;69.82
24160;BME280;62385;41.594;23.808;2023-02-17T07:16:00;96476.06;;;1.00;69.25
24160;BME280;62385;41.594;23.808;2023-02-17T07:18:26;96476.03;;;1.16;69.33
24160;BME280;62385;41.594;23.808;2023-02-17T07:20:52;96469.78;;;1.18;69.48
24160;BME280;62385;41.594;23.808;2023-02-17T07:23:18;96464.00;;;1.27;68.99
24160;BME280;62385;41.594;23.808;2023-02-17T07:25:43;96480.69;;;1.11;69.84
24160;BME280;62385;41.594;23.808;2023-02-17T07:28:09;96472.81;;;1.41;69.06
24160;BME280;62385;41.594;23.808;2023-02-17T07:30:42;96466.78;;;1.68;67.85
24160;BME280;62385;41.594;23.808;2023-02-17T07:33:08;96470.50;;;1.78;68.39
24160;BME280;62385;41.594;23.808;2023-02-17T07:35:41;96462.84;;;1.90;67.63
24160;BME280;62385;41.594;23.808;2023-02-17T07:38:12;96467.69;;;1.96;68.05
24160;BME280;62385;41.594;23.808;2023-02-17T07:40:38;96473.38;;;2.16;67.38
24160;BME280;62385;41.594;23.808;2023-02-17T07:43:04;96470.88;;;2.01;69.00
24160;BME280;62385;41.594;23.808;2023-02-17T07:45:29;96471.88;;;2.12;68.71
24160;BME280;62385;41.594;23.808;2023-02-17T07:47:55;96457.00;;;2.54;67.32
24160;BME280;62385;41.594;23.808;2023-02-17T07:50:20;96460.22;;;2.71;66.58
24160;BME280;62385;41.594;23.808;2023-02-17T07:52:46;96454.41;;;2.81;66.72
24160;BME280;62385;41.594;23.808;2023-02-17T07:55:12;96460.09;;;3.00;66.56
24160;BME280;62385;41.594;23.808;2023-02-17T07:57:38;96452.25;;;3.00;66.35
24160;BME280;62385;41.594;23.808;2023-02-17T08:00:04;96459.75;;;3.44;65.86
24160;BME280;62385;41.594;23.808;2023-02-17T08:02:38;96457.66;;;3.36;65.56
24160;BME280;62385;41.594;23.808;2023-02-17T08:05:05;96451.59;;;3.61;65.47
24160;BME280;62385;41.594;23.808;2023-02-17T08:14:34;96460.59;;;3.44;66.20
24160;BME280;62385;41.594;23.808;2023-02-17T08:17:02;96438.34;;;3.88;64.84
24160;BME280;62385;41.594;23.808;2023-02-17T08:19:28;96448.66;;;3.78;65.11
24160;BME280;62385;41.594;23.808;2023-02-17T08:21:53;96442.94;;;4.22;64.15
24160;BME280;62385;41.594;23.808;2023-02-17T08:24:19;96447.41;;;4.33;63.92
24160;BME280;62385;41.594;23.808;2023-02-17T08:26:46;96457.66;;;3.99;65.63
24160;BME280;62385;41.594;23.808;2023-02-17T08:29:12;96425.00;;;4.27;63.75
24160;BME280;62385;41.594;23.808;2023-02-17T08:31:38;96442.44;;;4.41;63.36
24160;BME280;62385;41.594;23.808;2023-02-17T08:34:06;96434.84;;;4.73;63.65
24160;BME280;62385;41.594;23.808;2023-02-17T08:36:33;96424.66;;;4.68;63.52
24160;BME280;62385;41.594;23.808;2023-02-17T08:39:02;96441.16;;;4.46;64.18
24160;BME280;62385;41.594;23.808;2023-02-17T08:41:30;96415.44;;;4.62;63.38
24160;BME280;62385;41.594;23.808;2023-02-17T08:43:58;96429.25;;;5.01;63.83
24160;BME280;62385;41.594;23.808;2023-02-17T08:46:24;96416.06;;;5.36;62.02
24160;BME280;62385;41.594;23.808;2023-02-17T08:48:51;96398.72;;;5.33;62.14
24160;BME280;62385;41.594;23.808;2023-02-17T08:51:20;96416.75;;;5.84;60.59
24160;BME280;62385;41.594;23.808;2023-02-17T08:53:54;96403.19;;;5.66;60.42
24160;BME280;62385;41.594;23.808;2023-02-17T08:56:22;96411.75;;;5.92;60.10
24160;BME280;62385;41.594;23.808;2023-02-17T08:58:48;96427.75;;;5.67;60.71
24160;BME280;62385;41.594;23.808;2023-02-17T09:01:13;96408.38;;;5.90;60.66
24160;BME280;62385;41.594;23.808;2023-02-17T09:03:41;96407.50;;;5.78;60.46
24160;BME280;62385;41.594;23.808;2023-02-17T09:06:07;96423.44;;;5.66;61.00
24160;BME280;62385;41.594;23.808;2023-02-17T09:08:33;96411.47;;;6.28;59.12
24160;BME280;62385;41.594;23.808;2023-02-17T09:10:59;96411.19;;;6.42;58.20
24160;BME280;62385;41.594;23.808;2023-02-17T09:13:25;96417.25;;;6.33;57.82
24160;BME280;62385;41.594;23.808;2023-02-17T09:15:54;96413.53;;;6.68;57.46
24160;BME280;62385;41.594;23.808;2023-02-17T09:18:21;96403.72;;;6.59;56.88
24160;BME280;62385;41.594;23.808;2023-02-17T09:20:47;96410.00;;;6.46;58.06
24160;BME280;62385;41.594;23.808;2023-02-17T09:23:32;96409.00;;;6.59;58.92
24160;BME280;62385;41.594;23.808;2023-02-17T09:26:08;96404.69;;;6.69;58.31
24160;BME280;62385;41.594;23.808;2023-02-17T09:28:35;96398.91;;;6.75;58.00
24160;BME280;62385;41.594;23.808;2023-02-17T09:31:22;96391.16;;;6.94;57.88
24160;BME280;62385;41.594;23.808;2023-02-17T09:33:49;96386.59;;;7.37;56.65
24160;BME280;62385;41.594;23.808;2023-02-17T09:36:17;96384.78;;;7.17;56.82
24160;BME280;62385;41.594;23.808;2023-02-17T09:38:43;96381.06;;;7.40;55.80
24160;BME280;62385;41.594;23.808;2023-02-17T09:41:22;96371.38;;;7.51;55.15
24160;BME280;62385;41.594;23.808;2023-02-17T09:43:50;96376.66;;;7.51;55.77
24160;BME280;62385;41.594;23.808;2023-02-17T09:48:52;96371.03;;;7.85;53.84
24160;BME280;62385;41.594;23.808;2023-02-17T09:51:25;96358.56;;;7.46;54.74
24160;BME280;62385;41.594;23.808;2023-02-17T09:54:17;96358.53;;;7.97;53.53
24160;BME280;62385;41.594;23.808;2023-02-17T09:56:46;96350.25;;;8.61;51.63
24160;BME280;62385;41.594;23.808;2023-02-17T09:59:31;96346.50;;;8.73;51.74
24160;BME280;62385;41.594;23.808;2023-02-17T10:01:59;96341.22;;;9.02;50.73
24160;BME280;62385;41.594;23.808;2023-02-17T10:04:31;96334.38;;;8.80;51.85
24160;BME280;62385;41.594;23.808;2023-02-17T10:07:04;96332.56;;;9.09;51.32
24160;BME280;62385;41.594;23.808;2023-02-17T10:09:33;96316.91;;;9.35;49.43
24160;BME280;62385;41.594;23.808;2023-02-17T10:12:13;96309.50;;;9.29;49.66
24160;BME280;62385;41.594;23.808;2023-02-17T10:15:03;96305.41;;;9.44;49.22
24160;BME280;62385;41.594;23.808;2023-02-17T10:20:53;96306.16;;;9.73;50.42
24160;BME280;62385;41.594;23.808;2023-02-17T10:23:26;96294.16;;;9.79;50.02
24160;BME280;62385;41.594;23.808;2023-02-17T10:31:08;96284.88;;;9.93;49.42
24160;BME280;62385;41.594;23.808;2023-02-17T10:33:40;96273.91;;;9.78;49.66
24160;BME280;62385;41.594;23.808;2023-02-17T10:39:09;96265.50;;;9.83;49.50
24160;BME280;62385;41.594;23.808;2023-02-17T10:41:38;96266.38;;;9.73;50.22
24160;BME280;62385;41.594;23.808;2023-02-17T10:44:15;96254.56;;;9.68;50.46
24160;BME280;62385;41.594;23.808;2023-02-17T10:46:44;96251.16;;;9.85;48.95
24160;BME280;62385;41.594;23.808;2023-02-17T10:51:50;96243.78;;;9.69;49.41
24160;BME280;62385;41.594;23.808;2023-02-17T10:54:28;96238.50;;;9.97;49.34
24160;BME280;62385;41.594;23.808;2023-02-17T10:56:57;96234.09;;;9.88;48.60
24160;BME280;62385;41.594;23.808;2023-02-17T10:59:33;96235.19;;;9.67;48.41
24160;BME280;62385;41.594;23.808;2023-02-17T11:02:22;96226.19;;;10.05;48.00
24160;BME280;62385;41.594;23.808;2023-02-17T11:04:51;96206.72;;;10.68;44.95
24160;BME280;62385;41.594;23.808;2023-02-17T11:07:38;96208.34;;;10.86;44.01
24160;BME280;62385;41.594;23.808;2023-02-17T11:12:49;96206.00;;;10.83;44.63
24160;BME280;62385;41.594;23.808;2023-02-17T11:15:17;96199.41;;;10.87;44.64
24160;BME280;62385;41.594;23.808;2023-02-17T11:17:44;96191.88;;;11.00;42.88
24160;BME280;62385;41.594;23.808;2023-02-17T11:22:40;96185.91;;;11.06;43.87
24160;BME280;62385;41.594;23.808;2023-02-17T11:25:22;96178.66;;;10.91;43.87
24160;BME280;62385;41.594;23.808;2023-02-17T11:27:54;96177.50;;;11.19;44.20
24160;BME280;62385;41.594;23.808;2023-02-17T11:30:21;96169.41;;;11.21;42.01
24160;BME280;62385;41.594;23.808;2023-02-17T11:32:47;96159.69;;;11.11;40.38
24160;BME280;62385;41.594;23.808;2023-02-17T11:35:43;96162.72;;;11.50;41.29
24160;BME280;62385;41.594;23.808;2023-02-17T11:38:17;96146.47;;;11.62;40.81
24160;BME280;62385;41.594;23.808;2023-02-17T11:40:55;96145.09;;;11.49;42.05
24160;BME280;62385;41.594;23.808;2023-02-17T11:43:21;96141.09;;;11.45;42.36
24160;BME280;62385;41.594;23.808;2023-02-17T12:14:24;96082.16;;;13.04;37.86
24160;BME280;62385;41.594;23.808;2023-02-17T12:34:12;96054.47;;;13.82;34.25
24160;BME280;62385;41.594;23.808;2023-02-17T12:36:36;96054.69;;;13.42;34.22
24160;BME280;62385;41.594;23.808;2023-02-17T12:39:12;96048.47;;;13.80;34.80
24160;BME280;62385;41.594;23.808;2023-02-17T12:41:45;96047.44;;;13.59;34.83
24160;BME280;62385;41.594;23.808;2023-02-17T12:44:17;96048.75;;;13.63;35.63
24160;BME280;62385;41.594;23.808;2023-02-17T12:46:49;96047.56;;;13.65;34.91
24160;BME280;62385;41.594;23.808;2023-02-17T12:49:22;96048.16;;;13.14;34.75
24160;BME280;62385;41.594;23.808;2023-02-17T12:51:53;96038.69;;;13.42;33.69
24160;BME280;62385;41.594;23.808;2023-02-17T12:54:43;96036.97;;;14.03;32.21
24160;BME280;62385;41.594;23.808;2023-02-17T13:02:05;96024.50;;;14.41;31.15
24160;BME280;62385;41.594;23.808;2023-02-17T13:04:32;96026.72;;;14.29;30.50
24160;BME280;62385;41.594;23.808;2023-02-17T13:07:08;96023.53;;;14.56;28.74
24160;BME280;62385;41.594;23.808;2023-02-17T13:09:43;96025.00;;;14.59;29.85
24160;BME280;62385;41.594;23.808;2023-02-17T13:12:37;96023.97;;;14.45;29.39
24160;BME280;62385;41.594;23.808;2023-02-17T13:15:24;96028.88;;;14.56;29.65
24160;BME280;62385;41.594;23.808;2023-02-17T13:17:54;96023.84;;;14.39;31.88
24160;BME280;62385;41.594;23.808;2023-02-17T13:20:28;96030.34;;;14.59;30.63
24160;BME280;62385;41.594;23.808;2023-02-17T13:23:05;96021.22;;;14.83;29.49
24160;BME280;62385;41.594;23.808;2023-02-17T13:25:33;96012.75;;;14.94;29.11
24160;BME280;62385;41.594;23.808;2023-02-17T13:28:01;96014.25;;;15.11;28.60
24160;BME280;62385;41.594;23.808;2023-02-17T13:30:42;96015.16;;;15.18;30.06
24160;BME280;62385;41.594;23.808;2023-02-17T13:35:46;96010.31;;;15.28;27.80
24160;BME280;62385;41.594;23.808;2023-02-17T13:38:12;96009.31;;;15.29;28.54
24160;BME280;62385;41.594;23.808;2023-02-17T13:40:39;96011.88;;;15.37;28.85
24160;BME280;62385;41.594;23.808;2023-02-17T13:43:15;96015.09;;;15.47;28.41
24160;BME280;62385;41.594;23.808;2023-02-17T13:48:24;96007.66;;;15.28;29.03
24160;BME280;62385;41.594;23.808;2023-02-17T13:50:59;95996.38;;;15.33;29.30
24160;BME280;62385;41.594;23.808;2023-02-17T13:55:56;96000.00;;;15.40;29.45
24160;BME280;62385;41.594;23.808;2023-02-17T13:58:31;96000.28;;;15.81;28.95
24160;BME280;62385;41.594;23.808;2023-02-17T14:01:00;95994.47;;;15.77;28.52
24160;BME280;62385;41.594;23.808;2023-02-17T14:06:04;95998.91;;;15.70;30.19
24160;BME280;62385;41.594;23.808;2023-02-17T14:11:00;95999.25;;;15.82;29.14
24160;BME280;62385;41.594;23.808;2023-02-17T14:13:30;95993.63;;;15.77;29.07
24160;BME280;62385;41.594;23.808;2023-02-17T14:15:58;95988.41;;;15.90;28.85
24160;BME280;62385;41.594;23.808;2023-02-17T14:18:36;95992.38;;;15.94;28.52
24160;BME280;62385;41.594;23.808;2023-02-17T14:21:10;95989.94;;;15.78;28.81
24160;BME280;62385;41.594;23.808;2023-02-17T14:23:46;95989.44;;;15.89;29.03
24160;BME280;62385;41.594;23.808;2023-02-17T14:28:59;95990.91;;;15.05;31.50
24160;BME280;62385;41.594;23.808;2023-02-17T14:31:25;95994.84;;;15.95;28.59
24160;BME280;62385;41.594;23.808;2023-02-17T14:33:58;95989.75;;;16.00;28.60
24160;BME280;62385;41.594;23.808;2023-02-17T14:36:35;95989.03;;;16.13;28.60
24160;BME280;62385;41.594;23.808;2023-02-17T14:39:03;95993.38;;;16.14;29.86
24160;BME280;62385;41.594;23.808;2023-02-17T14:41:29;95986.34;;;16.34;29.21
24160;BME280;62385;41.594;23.808;2023-02-17T14:43:55;95997.94;;;16.41;29.46
24160;BME280;62385;41.594;23.808;2023-02-17T14:46:21;95998.09;;;15.91;30.54
24160;BME280;62385;41.594;23.808;2023-02-17T14:48:48;95995.75;;;15.16;31.90
24160;BME280;62385;41.594;23.808;2023-02-17T14:51:21;96000.03;;;14.96;31.44
24160;BME280;62385;41.594;23.808;2023-02-17T14:53:48;95995.59;;;15.32;30.88
24160;BME280;62385;41.594;23.808;2023-02-17T14:56:40;95987.50;;;15.83;30.87
24160;BME280;62385;41.594;23.808;2023-02-17T14:59:05;95990.63;;;15.65;30.44
24160;BME280;62385;41.594;23.808;2023-02-17T15:01:31;95992.53;;;15.35;31.18
24160;BME280;62385;41.594;23.808;2023-02-17T15:03:56;95986.75;;;15.67;29.52